createdAt,value
2023-01-19T00:01:15.968Z,99311.13
2023-01-19T00:03:26.815Z,99318.97
2023-01-19T00:05:31.165Z,99328.22
2023-01-19T00:07:33.439Z,99316.25
2023-01-19T00:09:41.247Z,99319.59
2023-01-19T00:11:50.405Z,99321.31
2023-01-19T00:13:53.856Z,99334.78
2023-01-19T00:15:55.838Z,99338.13
2023-01-19T00:17:57.713Z,99334.84
2023-01-19T00:20:00.733Z,99325.56
2023-01-19T00:22:02.723Z,99340.00
2023-01-19T00:24:04.996Z,99336.53
2023-01-19T00:26:13.791Z,99346.50
2023-01-19T00:28:18.212Z,99345.66
2023-01-19T00:30:22.936Z,99355.84
2023-01-19T00:32:31.013Z,99356.63
2023-01-19T00:34:37.148Z,99355.72
2023-01-19T00:36:40.025Z,99357.53
2023-01-19T00:38:50.087Z,99354.91
2023-01-19T00:40:52.130Z,99365.97
2023-01-19T00:42:54.750Z,99367.59
2023-01-19T00:45:07.366Z,99367.50
2023-01-19T00:47:12.530Z,99366.53
2023-01-19T00:49:20.584Z,99371.44
2023-01-19T00:51:22.560Z,99373.13
2023-01-19T00:53:32.733Z,99373.13
2023-01-19T00:55:34.660Z,99368.78
2023-01-19T00:57:38.992Z,99369.72
2023-01-19T00:59:41.980Z,99363.84
2023-01-19T01:01:45.166Z,99369.72
2023-01-19T01:03:48.630Z,99369.63
2023-01-19T01:05:50.581Z,99368.00
2023-01-19T01:07:52.630Z,99373.84
2023-01-19T01:09:54.713Z,99382.38
2023-01-19T01:12:00.664Z,99383.31
2023-01-19T01:14:02.598Z,99368.25
2023-01-19T01:16:06.230Z,99367.47
2023-01-19T01:18:10.358Z,99362.22
2023-01-19T01:20:23.378Z,99365.53
2023-01-19T01:22:25.488Z,99357.88
2023-01-19T01:24:32.907Z,99358.13
2023-01-19T01:26:36.821Z,99347.69
2023-01-19T01:28:39.798Z,99349.94
2023-01-19T01:30:44.260Z,99348.44
2023-01-19T01:32:52.864Z,99345.63
2023-01-19T01:34:54.819Z,99344.03
2023-01-19T01:36:56.750Z,99338.09
2023-01-19T01:38:58.934Z,99340.72
2023-01-19T01:41:00.921Z,99344.09
2023-01-19T01:43:03.656Z,99338.84
2023-01-19T01:45:35.859Z,99336.59
2023-01-19T01:47:47.073Z,99337.44
2023-01-19T01:49:50.815Z,99337.44
2023-01-19T01:51:54.463Z,99339.94
2023-01-19T01:54:04.257Z,99339.53
2023-01-19T01:56:12.332Z,99338.03
2023-01-19T01:58:16.752Z,99336.88
2023-01-19T02:00:19.899Z,99335.75
2023-01-19T02:02:49.445Z,99336.34
2023-01-19T02:05:15.687Z,99339.13
2023-01-19T02:08:02.338Z,99330.78
2023-01-19T02:10:23.176Z,99334.59
2023-01-19T02:12:45.140Z,99330.28
2023-01-19T02:14:48.960Z,99337.28
2023-01-19T02:16:56.764Z,99339.00
2023-01-19T02:19:12.989Z,99344.41
2023-01-19T02:21:23.196Z,99343.88
2023-01-19T02:23:53.544Z,99345.13
2023-01-19T02:25:56.549Z,99343.75
2023-01-19T02:28:01.692Z,99345.28
2023-01-19T02:30:05.597Z,99340.41
2023-01-19T02:32:08.982Z,99348.53
2023-01-19T02:34:15.675Z,99354.44
2023-01-19T02:36:35.982Z,99350.25
2023-01-19T02:38:47.638Z,99359.50
2023-01-19T02:40:59.444Z,99355.47
2023-01-19T02:43:04.234Z,99353.78
2023-01-19T02:45:17.803Z,99352.25
2023-01-19T02:47:20.886Z,99355.13
2023-01-19T02:49:23.518Z,99346.72
2023-01-19T02:51:25.612Z,99348.47
2023-01-19T02:53:56.420Z,99348.78
2023-01-19T02:56:19.712Z,99356.41
2023-01-19T02:58:45.304Z,99348.81
2023-01-19T03:01:32.067Z,99348.13
2023-01-19T03:04:07.719Z,99341.31
2023-01-19T03:06:37.994Z,99337.91
2023-01-19T03:08:48.799Z,99337.09
2023-01-19T03:11:01.534Z,99328.72
2023-01-19T03:13:19.704Z,99336.31
2023-01-19T03:15:33.039Z,99338.00
2023-01-19T03:17:38.486Z,99336.34
2023-01-19T03:19:43.115Z,99336.34
2023-01-19T03:21:49.778Z,99346.63
2023-01-19T03:24:06.457Z,99357.50
2023-01-19T03:26:13.305Z,99358.28
2023-01-19T03:28:20.359Z,99360.81
2023-01-19T03:30:30.051Z,99364.16
2023-01-19T03:32:42.657Z,99368.38
2023-01-19T03:34:48.269Z,99375.16
2023-01-19T03:37:02.165Z,99367.63
2023-01-19T03:39:06.011Z,99365.13
2023-01-19T03:41:17.028Z,99372.81
2023-01-19T03:43:20.909Z,99372.81
2023-01-19T03:45:26.986Z,99367.75
2023-01-19T03:47:35.555Z,99377.88
2023-01-19T03:49:39.539Z,99379.66
2023-01-19T03:51:43.554Z,99391.59
2023-01-19T03:53:46.528Z,99388.19
2023-01-19T03:55:51.655Z,99381.44
2023-01-19T03:57:53.768Z,99381.44
2023-01-19T03:59:57.021Z,99393.44
2023-01-19T04:01:58.974Z,99389.34
2023-01-19T04:04:01.245Z,99398.50
2023-01-19T04:06:10.241Z,99392.59
2023-01-19T04:08:14.190Z,99397.50
2023-01-19T04:10:18.127Z,99397.56
2023-01-19T04:12:23.805Z,99402.91
2023-01-19T04:14:25.741Z,99410.63
2023-01-19T04:16:29.715Z,99414.09
2023-01-19T04:18:34.761Z,99410.75
2023-01-19T04:20:38.771Z,99414.22
2023-01-19T04:22:42.760Z,99412.53
2023-01-19T04:24:46.843Z,99415.81
2023-01-19T04:26:52.148Z,99425.94
2023-01-19T04:28:54.036Z,99425.06
2023-01-19T04:30:57.652Z,99423.38
2023-01-19T04:33:00.425Z,99425.94
2023-01-19T04:35:02.712Z,99428.53
2023-01-19T04:37:04.983Z,99432.00
2023-01-19T04:39:09.105Z,99433.00
2023-01-19T04:41:11.072Z,99438.88
2023-01-19T04:43:14.499Z,99437.19
2023-01-19T04:45:17.240Z,99436.34
2023-01-19T04:47:19.260Z,99434.59
2023-01-19T04:49:22.228Z,99448.16
2023-01-19T04:51:24.186Z,99448.19
2023-01-19T04:53:27.337Z,99449.06
2023-01-19T04:55:29.369Z,99459.91
2023-01-19T04:57:31.839Z,99456.59
2023-01-19T04:59:33.888Z,99452.38
2023-01-19T05:01:35.904Z,99455.84
2023-01-19T05:03:38.823Z,99461.78
2023-01-19T05:05:41.735Z,99455.97
2023-01-19T05:07:43.824Z,99458.59
2023-01-19T05:09:46.869Z,99466.31
2023-01-19T05:11:49.805Z,99465.38
2023-01-19T05:13:51.963Z,99466.38
2023-01-19T05:15:53.937Z,99463.78
2023-01-19T05:17:58.246Z,99455.38
2023-01-19T05:20:01.261Z,99462.91
2023-01-19T05:22:04.933Z,99456.19
2023-01-19T05:24:07.350Z,99455.25
2023-01-19T05:26:10.297Z,99454.69
2023-01-19T05:28:13.460Z,99455.44
2023-01-19T05:30:15.649Z,99456.38
2023-01-19T05:32:17.681Z,99457.09
2023-01-19T05:34:21.623Z,99477.63
2023-01-19T05:36:23.568Z,99492.19
2023-01-19T05:38:34.543Z,99489.56
2023-01-19T05:40:37.088Z,99491.25
2023-01-19T05:42:39.482Z,99490.53
2023-01-19T05:44:42.399Z,99487.91
2023-01-19T05:46:45.458Z,99486.22
2023-01-19T05:48:47.427Z,99480.22
2023-01-19T05:50:51.704Z,99481.88
2023-01-19T05:52:53.652Z,99478.56
2023-01-19T05:54:55.559Z,99480.97
2023-01-19T05:56:57.937Z,99485.28
2023-01-19T05:59:00.559Z,99493.69
2023-01-19T06:01:05.872Z,99497.25
2023-01-19T06:03:15.270Z,99498.16
2023-01-19T06:05:17.814Z,99505.72
2023-01-19T06:07:19.860Z,99498.28
2023-01-19T06:09:21.829Z,99499.09
2023-01-19T06:11:26.394Z,99498.16
2023-01-19T06:13:28.290Z,99510.03
2023-01-19T06:15:30.295Z,99510.16
2023-01-19T06:17:33.596Z,99521.88
2023-01-19T06:19:36.614Z,99532.03
2023-01-19T06:21:39.601Z,99539.50
2023-01-19T06:23:41.578Z,99543.91
2023-01-19T06:25:43.489Z,99539.63
2023-01-19T06:27:46.323Z,99544.84
2023-01-19T06:29:49.392Z,99552.28
2023-01-19T06:32:01.544Z,99558.28
2023-01-19T06:34:04.207Z,99564.41
2023-01-19T06:36:06.424Z,99561.69
2023-01-19T06:38:10.663Z,99565.78
2023-01-19T06:40:14.730Z,99560.75
2023-01-19T06:42:17.054Z,99568.34
2023-01-19T06:44:30.298Z,99576.84
2023-01-19T06:46:36.146Z,99575.09
2023-01-19T06:48:48.826Z,99586.16
2023-01-19T06:50:53.917Z,99582.66
2023-01-19T06:52:56.908Z,99585.19
2023-01-19T06:55:05.132Z,99586.03
2023-01-19T06:57:12.173Z,99585.19
2023-01-19T06:59:22.128Z,99582.56
2023-01-19T07:01:33.014Z,99583.31
2023-01-19T07:03:47.163Z,99575.63
2023-01-19T07:06:06.969Z,99576.44
2023-01-19T07:08:17.208Z,99564.50
2023-01-19T07:10:27.120Z,99563.69
2023-01-19T07:12:49.354Z,99566.16
2023-01-19T07:15:00.886Z,99560.38
2023-01-19T07:17:03.248Z,99556.84
2023-01-19T07:19:06.306Z,99563.63
2023-01-19T07:21:10.310Z,99558.56
2023-01-19T07:23:21.301Z,99566.22
2023-01-19T07:25:31.022Z,99565.50
2023-01-19T07:27:37.000Z,99566.16
2023-01-19T07:29:45.641Z,99563.50
2023-01-19T07:31:54.961Z,99561.91
2023-01-19T07:36:30.623Z,99565.38
2023-01-19T07:38:37.859Z,99568.44
2023-01-19T07:41:16.154Z,99570.41
2023-01-19T07:43:19.745Z,99576.53
2023-01-19T07:45:26.118Z,99585.91
2023-01-19T07:47:30.851Z,99589.28
2023-01-19T07:49:33.923Z,99589.50
2023-01-19T07:51:36.470Z,99588.00
2023-01-19T07:53:42.117Z,99591.41
2023-01-19T07:55:44.399Z,99601.63
2023-01-19T07:57:52.017Z,99617.78
2023-01-19T08:00:04.340Z,99622.97
2023-01-19T08:02:10.326Z,99626.50
2023-01-19T08:04:12.537Z,99616.38
2023-01-19T08:06:24.625Z,99610.56
2023-01-19T08:08:26.663Z,99614.69
2023-01-19T08:10:30.666Z,99614.81
2023-01-19T08:12:39.390Z,99610.69
2023-01-19T08:14:41.647Z,99604.81
2023-01-19T08:16:50.000Z,99599.59
2023-01-19T08:18:52.146Z,99597.03
2023-01-19T08:20:54.112Z,99596.94
2023-01-19T08:23:03.384Z,99596.88
2023-01-19T08:25:19.757Z,99596.28
2023-01-19T08:27:37.961Z,99590.28
2023-01-19T08:29:41.892Z,99583.53
2023-01-19T08:31:46.052Z,99586.00
2023-01-19T08:33:50.341Z,99585.28
2023-01-19T08:35:54.260Z,99597.06
2023-01-19T08:37:56.203Z,99589.72
2023-01-19T08:40:00.145Z,99591.31
2023-01-19T08:42:04.356Z,99591.22
2023-01-19T08:44:14.883Z,99588.72
2023-01-19T08:46:17.798Z,99588.00
2023-01-19T08:48:22.956Z,99583.91
2023-01-19T08:50:28.197Z,99590.69
2023-01-19T08:52:30.825Z,99591.44
2023-01-19T08:54:32.879Z,99598.25
2023-01-19T08:56:38.121Z,99598.50
2023-01-19T08:58:43.272Z,99607.03
2023-01-19T09:00:46.264Z,99611.34
2023-01-19T09:02:48.682Z,99609.53
2023-01-19T09:04:50.744Z,99607.78
2023-01-19T09:07:00.675Z,99612.13
2023-01-19T09:09:04.066Z,99609.66
2023-01-19T09:11:13.392Z,99622.34
2023-01-19T09:13:20.716Z,99620.66
2023-01-19T09:15:23.747Z,99619.91
2023-01-19T09:17:33.996Z,99616.59
2023-01-19T09:19:56.568Z,99624.13
2023-01-19T09:22:01.096Z,99617.34
2023-01-19T09:24:03.902Z,99622.66
2023-01-19T09:26:06.974Z,99627.72
2023-01-19T09:28:18.066Z,99638.78
2023-01-19T09:30:20.224Z,99634.53
2023-01-19T09:32:28.093Z,99629.47
2023-01-19T09:34:32.161Z,99626.97
2023-01-19T09:36:38.312Z,99628.47
2023-01-19T09:38:46.415Z,99624.13
2023-01-19T09:40:59.877Z,99623.75
2023-01-19T09:43:33.799Z,99623.53
2023-01-19T09:46:01.808Z,99630.28
2023-01-19T09:48:24.138Z,99623.50
2023-01-19T09:50:38.594Z,99615.09
2023-01-19T09:52:44.958Z,99610.69
2023-01-19T09:55:06.690Z,99605.75
2023-01-19T09:57:16.973Z,99609.16
2023-01-19T09:59:30.127Z,99612.34
2023-01-19T10:01:53.678Z,99611.69
2023-01-19T10:04:08.889Z,99613.38
2023-01-19T10:06:21.985Z,99624.28
2023-01-19T10:08:38.364Z,99617.50
2023-01-19T10:10:43.489Z,99619.22
2023-01-19T10:13:40.913Z,99602.41
2023-01-19T10:16:12.334Z,99610.69
2023-01-19T10:18:51.650Z,99604.00
2023-01-19T10:21:12.865Z,99603.25
2023-01-19T10:23:42.261Z,99592.94
2023-01-19T10:25:52.845Z,99595.53
2023-01-19T10:28:09.145Z,99594.59
2023-01-19T10:30:27.798Z,99602.94
2023-01-19T10:32:36.735Z,99590.41
2023-01-19T10:34:41.858Z,99591.31
2023-01-19T10:37:05.001Z,99581.94
2023-01-19T10:39:17.743Z,99586.25
2023-01-19T10:41:48.417Z,99590.41
2023-01-19T10:44:00.876Z,99593.94
2023-01-19T10:46:22.850Z,99584.66
2023-01-19T10:48:25.113Z,99589.72
2023-01-19T10:50:42.691Z,99581.38
2023-01-19T10:52:51.195Z,99590.91
2023-01-19T10:54:56.008Z,99592.75
2023-01-19T10:57:09.873Z,99591.41
2023-01-19T10:59:38.673Z,99595.06
2023-01-19T11:01:44.348Z,99597.91
2023-01-19T11:03:47.964Z,99595.38
2023-01-19T11:05:51.070Z,99601.13
2023-01-19T11:07:58.541Z,99596.81
2023-01-19T11:10:24.784Z,99594.69
2023-01-19T11:12:27.006Z,99609.03
2023-01-19T11:14:31.667Z,99605.59
2023-01-19T11:16:35.657Z,99596.13
2023-01-19T11:18:44.114Z,99597.06
2023-01-19T11:20:58.297Z,99595.19
2023-01-19T11:23:21.381Z,99599.50
2023-01-19T11:25:31.192Z,99588.53
2023-01-19T11:27:36.928Z,99587.41
2023-01-19T11:29:41.706Z,99581.75
2023-01-19T11:31:47.552Z,99578.47
2023-01-19T11:34:00.064Z,99571.06
2023-01-19T11:36:26.079Z,99566.09
2023-01-19T11:38:45.147Z,99553.84
2023-01-19T11:41:01.844Z,99560.94
2023-01-19T11:43:04.216Z,99566.13
2023-01-19T11:45:17.473Z,99554.31
2023-01-19T11:47:23.319Z,99548.50
2023-01-19T11:49:38.739Z,99554.00
2023-01-19T11:51:58.856Z,99556.66
2023-01-19T11:54:08.848Z,99556.41
2023-01-19T11:56:13.906Z,99551.34
2023-01-19T11:58:25.138Z,99550.00
2023-01-19T12:00:37.063Z,99547.25
2023-01-19T12:02:49.858Z,99550.63
2023-01-19T12:04:58.161Z,99554.94
2023-01-19T12:07:10.729Z,99550.72
2023-01-19T12:09:21.323Z,99555.50
2023-01-19T12:11:38.782Z,99549.47
2023-01-19T12:13:44.331Z,99544.16
2023-01-19T12:15:48.409Z,99545.09
2023-01-19T12:17:53.751Z,99553.75
2023-01-19T12:20:14.937Z,99556.47
2023-01-19T12:22:20.638Z,99559.22
2023-01-19T12:24:44.899Z,99566.47
2023-01-19T12:27:24.287Z,99559.94
2023-01-19T12:29:35.914Z,99561.16
2023-01-19T12:31:43.176Z,99550.28
2023-01-19T12:33:50.807Z,99548.78
2023-01-19T12:36:04.076Z,99556.41
2023-01-19T12:38:47.154Z,99544.63
2023-01-19T12:40:49.105Z,99544.00
2023-01-19T12:43:05.823Z,99543.31
2023-01-19T12:45:32.046Z,99540.03
2023-01-19T12:47:39.235Z,99535.22
2023-01-19T12:49:51.525Z,99537.75
2023-01-19T12:52:24.412Z,99543.69
2023-01-19T12:54:33.253Z,99546.22
2023-01-19T12:56:38.336Z,99542.94
2023-01-19T12:58:47.897Z,99548.19
2023-01-19T13:01:13.589Z,99542.13
2023-01-19T13:03:19.852Z,99543.03
2023-01-19T13:05:39.899Z,99541.31
2023-01-19T13:08:04.967Z,99533.09
2023-01-19T13:10:44.391Z,99526.41
2023-01-19T13:13:16.844Z,99527.56
2023-01-19T13:15:35.550Z,99525.03
2023-01-19T13:17:50.764Z,99529.88
2023-01-19T13:19:59.094Z,99527.84
2023-01-19T13:22:43.876Z,99533.81
2023-01-19T13:25:13.567Z,99530.84
2023-01-19T13:27:15.663Z,99527.13
2023-01-19T13:29:37.613Z,99522.97
2023-01-19T13:31:40.584Z,99524.16
2023-01-19T13:33:56.115Z,99529.34
2023-01-19T13:35:59.554Z,99534.78
2023-01-19T13:38:11.600Z,99538.94
2023-01-19T13:40:24.226Z,99545.94
2023-01-19T13:42:37.480Z,99549.41
2023-01-19T13:44:52.497Z,99549.50
2023-01-19T13:47:03.506Z,99556.31
2023-01-19T13:49:37.105Z,99561.53
2023-01-19T13:51:39.320Z,99558.91
2023-01-19T13:53:54.219Z,99565.78
2023-01-19T13:56:08.102Z,99569.91
2023-01-19T13:58:24.468Z,99570.75
2023-01-19T14:00:29.848Z,99569.81
2023-01-19T14:02:34.153Z,99574.06
2023-01-19T14:04:37.287Z,99563.00
2023-01-19T14:06:48.871Z,99573.28
2023-01-19T14:09:09.026Z,99570.75
2023-01-19T14:11:14.599Z,99562.31
2023-01-19T14:13:25.457Z,99557.31
2023-01-19T14:15:29.357Z,99553.09
2023-01-19T14:17:32.721Z,99554.63
2023-01-19T14:19:57.512Z,99549.50
2023-01-19T14:22:02.084Z,99564.72
2023-01-19T14:24:08.314Z,99551.38
2023-01-19T14:26:41.914Z,99556.44
2023-01-19T14:28:49.789Z,99554.59
2023-01-19T14:30:58.188Z,99557.13
2023-01-19T14:33:00.195Z,99559.66
2023-01-19T14:35:05.158Z,99562.88
2023-01-19T14:37:28.427Z,99560.53
2023-01-19T14:39:36.135Z,99556.31
2023-01-19T14:41:45.211Z,99560.59
2023-01-19T14:43:47.426Z,99554.69
2023-01-19T14:45:49.481Z,99566.69
2023-01-19T14:48:02.915Z,99556.44
2023-01-19T14:50:33.364Z,99558.06
2023-01-19T14:52:39.947Z,99553.91
2023-01-19T14:54:51.851Z,99554.81
2023-01-19T14:56:54.309Z,99561.75
2023-01-19T14:59:02.532Z,99564.78
2023-01-19T15:01:05.032Z,99589.09
2023-01-19T15:03:10.329Z,99592.47
2023-01-19T15:05:14.642Z,99592.56
2023-01-19T15:07:20.464Z,99591.84
2023-01-19T15:09:26.917Z,99600.25
2023-01-19T15:11:35.637Z,99593.44
2023-01-19T15:13:39.345Z,99597.72
2023-01-19T15:15:42.053Z,99595.06
2023-01-19T15:17:44.593Z,99593.31
2023-01-19T15:20:00.485Z,99584.94
2023-01-19T15:22:02.516Z,99593.59
2023-01-19T15:24:07.157Z,99592.56
2023-01-19T15:26:14.066Z,99595.19
2023-01-19T15:28:20.632Z,99606.13
2023-01-19T15:30:33.803Z,99600.16
2023-01-19T15:32:35.807Z,99605.22
2023-01-19T15:34:37.745Z,99606.13
2023-01-19T15:36:42.582Z,99596.78
2023-01-19T15:38:46.553Z,99604.53
2023-01-19T15:40:51.408Z,99602.81
2023-01-19T15:42:53.762Z,99605.34
2023-01-19T15:44:56.762Z,99601.00
2023-01-19T15:46:59.743Z,99601.97
2023-01-19T15:49:05.900Z,99597.72
2023-01-19T15:51:14.119Z,99605.22
2023-01-19T15:53:18.639Z,99609.41
2023-01-19T15:55:21.333Z,99606.84
2023-01-19T15:57:24.236Z,99609.94
2023-01-19T15:59:28.201Z,99601.63
2023-01-19T16:01:31.712Z,99599.81
2023-01-19T16:03:52.973Z,99605.94
2023-01-19T16:06:01.815Z,99599.63
2023-01-19T16:08:15.752Z,99608.94
2023-01-19T16:10:25.350Z,99605.53
2023-01-19T16:12:29.501Z,99605.63
2023-01-19T16:14:35.461Z,99609.03
2023-01-19T16:16:38.913Z,99613.25
2023-01-19T16:18:41.100Z,99609.94
2023-01-19T16:20:44.125Z,99613.25
2023-01-19T16:22:48.955Z,99617.47
2023-01-19T16:24:53.300Z,99613.25
2023-01-19T16:26:57.321Z,99618.31
2023-01-19T16:29:01.347Z,99621.81
2023-01-19T16:31:04.271Z,99620.09
2023-01-19T16:33:06.491Z,99617.47
2023-01-19T16:35:09.125Z,99616.59
2023-01-19T16:37:14.262Z,99624.06
2023-01-19T16:39:17.500Z,99617.28
2023-01-19T16:41:23.204Z,99624.88
2023-01-19T16:43:28.316Z,99617.94
2023-01-19T16:45:33.969Z,99626.56
2023-01-19T16:47:36.700Z,99624.78
2023-01-19T16:49:39.032Z,99635.03
2023-01-19T16:51:41.982Z,99621.53
2023-01-19T16:53:44.382Z,99621.41
2023-01-19T16:55:47.574Z,99623.16
2023-01-19T16:57:49.827Z,99629.09
2023-01-19T16:59:53.113Z,99625.72
2023-01-19T17:01:55.493Z,99624.88
2023-01-19T17:03:57.738Z,99627.31
2023-01-19T17:06:00.067Z,99628.97
2023-01-19T17:08:02.616Z,99622.09
2023-01-19T17:10:05.671Z,99622.78
2023-01-19T17:12:09.370Z,99617.84
2023-01-19T17:14:16.962Z,99615.22
2023-01-19T17:16:19.687Z,99616.16
2023-01-19T17:18:22.061Z,99615.97
2023-01-19T17:20:34.221Z,99609.22
2023-01-19T17:22:38.251Z,99605.81
2023-01-19T17:24:43.558Z,99605.94
2023-01-19T17:26:49.106Z,99611.00
2023-01-19T17:28:57.748Z,99602.72
2023-01-19T17:31:12.100Z,99606.81
2023-01-19T17:33:20.189Z,99607.44
2023-01-19T17:35:22.457Z,99615.84
2023-01-19T17:37:24.879Z,99609.19
2023-01-19T17:39:27.011Z,99610.91
2023-01-19T17:41:33.879Z,99606.50
2023-01-19T17:43:38.048Z,99611.56
2023-01-19T17:45:42.419Z,99617.44
2023-01-19T17:47:50.019Z,99606.81
2023-01-19T17:49:59.412Z,99610.88
2023-01-19T17:52:01.939Z,99606.53
2023-01-19T17:54:07.109Z,99613.22
2023-01-19T17:56:12.825Z,99615.19
2023-01-19T17:58:16.501Z,99605.31
2023-01-19T18:00:19.911Z,99610.50
2023-01-19T18:02:26.139Z,99614.47
2023-01-19T18:04:41.272Z,99610.28
2023-01-19T18:06:43.943Z,99606.06
2023-01-19T18:08:49.800Z,99604.47
2023-01-19T18:10:57.151Z,99599.41
2023-01-19T18:12:59.765Z,99596.66
2023-01-19T18:15:06.121Z,99604.28
2023-01-19T18:17:08.392Z,99606.06
2023-01-19T18:19:10.923Z,99611.88
2023-01-19T18:21:15.467Z,99606.72
2023-01-19T18:23:18.136Z,99605.91
2023-01-19T18:25:20.939Z,99609.28
2023-01-19T18:27:25.483Z,99605.06
2023-01-19T18:29:30.266Z,99619.50
2023-01-19T18:31:36.247Z,99611.06
2023-01-19T18:33:40.795Z,99608.53
2023-01-19T18:35:52.264Z,99608.53
2023-01-19T18:37:57.835Z,99612.75
2023-01-19T18:40:05.295Z,99610.31
2023-01-19T18:42:09.242Z,99611.88
2023-01-19T18:44:13.721Z,99611.06
2023-01-19T18:46:16.907Z,99619.50
2023-01-19T18:48:19.720Z,99613.72
2023-01-19T18:50:23.667Z,99617.06
2023-01-19T18:52:26.766Z,99617.00
2023-01-19T18:54:46.977Z,99618.56
2023-01-19T18:56:53.496Z,99606.66
2023-01-19T18:58:56.492Z,99613.47
2023-01-19T19:01:01.162Z,99616.94
2023-01-19T19:03:09.020Z,99622.88
2023-01-19T19:05:17.960Z,99617.69
2023-01-19T19:07:20.447Z,99616.06
2023-01-19T19:09:24.472Z,99614.16
2023-01-19T19:11:27.989Z,99623.50
2023-01-19T19:13:31.007Z,99614.97
2023-01-19T19:15:37.002Z,99625.09
2023-01-19T19:17:41.659Z,99628.38
2023-01-19T19:19:49.606Z,99624.16
2023-01-19T19:21:54.406Z,99629.28
2023-01-19T19:23:58.959Z,99625.09
2023-01-19T19:26:10.409Z,99631.78
2023-01-19T19:28:15.960Z,99630.22
2023-01-19T19:30:24.816Z,99638.44
2023-01-19T19:32:27.653Z,99635.09
2023-01-19T19:34:30.498Z,99637.72
2023-01-19T19:36:33.809Z,99636.69
2023-01-19T19:38:40.747Z,99633.38
2023-01-19T19:40:44.879Z,99636.03
2023-01-19T19:42:47.402Z,99645.25
2023-01-19T19:44:54.345Z,99647.78
2023-01-19T19:47:05.942Z,99651.91
2023-01-19T19:49:08.126Z,99657.72
2023-01-19T19:51:18.997Z,99656.94
2023-01-19T19:53:24.118Z,99651.78
2023-01-19T19:55:27.401Z,99656.84
2023-01-19T19:57:31.584Z,99650.06
2023-01-19T19:59:33.970Z,99658.59
2023-01-19T20:01:36.979Z,99658.44
2023-01-19T20:03:41.519Z,99658.31
2023-01-19T20:05:46.199Z,99664.25
2023-01-19T20:07:50.091Z,99660.19
2023-01-19T20:09:54.559Z,99665.00
2023-01-19T20:11:57.558Z,99668.47
2023-01-19T20:14:00.672Z,99664.25
2023-01-19T20:16:13.360Z,99668.34
2023-01-19T20:18:16.459Z,99669.00
2023-01-19T20:20:30.580Z,99674.00
2023-01-19T20:22:34.041Z,99678.19
2023-01-19T20:24:40.077Z,99665.53
2023-01-19T20:26:51.432Z,99673.78
2023-01-19T20:28:56.089Z,99673.59
2023-01-19T20:31:10.297Z,99680.63
2023-01-19T20:33:13.570Z,99683.81
2023-01-19T20:35:17.104Z,99682.56
2023-01-19T20:37:20.243Z,99681.69
2023-01-19T20:39:25.893Z,99680.53
2023-01-19T20:41:29.755Z,99690.38
2023-01-19T20:43:37.161Z,99677.72
2023-01-19T20:45:40.025Z,99675.69
2023-01-19T20:47:42.786Z,99684.94
2023-01-19T20:49:45.618Z,99691.63
2023-01-19T20:51:48.981Z,99689.03
2023-01-19T20:53:52.048Z,99692.34
2023-01-19T20:55:55.435Z,99686.28
2023-01-19T20:57:58.160Z,99696.47
2023-01-19T21:00:01.574Z,99692.94
2023-01-19T21:02:06.797Z,99694.66
2023-01-19T21:04:10.333Z,99696.25
2023-01-19T21:06:13.936Z,99694.41
2023-01-19T21:08:16.922Z,99701.06
2023-01-19T21:10:19.393Z,99693.25
2023-01-19T21:12:23.155Z,99698.31
2023-01-19T21:14:26.607Z,99700.63
2023-01-19T21:16:30.879Z,99705.69
2023-01-19T21:18:33.660Z,99713.19
2023-01-19T21:20:37.945Z,99721.59
2023-01-19T21:22:40.363Z,99723.94
2023-01-19T21:24:44.536Z,99731.41
2023-01-19T21:26:46.760Z,99729.81
2023-01-19T21:28:50.917Z,99738.38
2023-01-19T21:31:18.722Z,99734.75
2023-01-19T21:33:24.216Z,99740.53
2023-01-19T21:35:26.282Z,99743.06
2023-01-19T21:37:30.861Z,99751.50
2023-01-19T21:39:33.852Z,99755.63
2023-01-19T21:41:40.141Z,99759.88
2023-01-19T21:43:43.844Z,99761.31
2023-01-19T21:45:47.305Z,99758.88
2023-01-19T21:47:50.399Z,99763.84
2023-01-19T21:49:53.353Z,99766.28
2023-01-19T21:51:55.538Z,99765.53
2023-01-19T21:53:59.836Z,99776.28
2023-01-19T21:56:16.119Z,99771.94
2023-01-19T21:58:18.472Z,99774.56
2023-01-19T22:00:22.947Z,99765.16
2023-01-19T22:02:38.249Z,99774.38
2023-01-19T22:04:41.092Z,99774.31
2023-01-19T22:06:43.266Z,99782.06
2023-01-19T22:08:47.320Z,99777.00
2023-01-19T22:10:49.341Z,99777.81
2023-01-19T22:12:51.287Z,99781.91
2023-01-19T22:14:54.378Z,99783.59
2023-01-19T22:16:57.559Z,99786.78
2023-01-19T22:19:02.532Z,99784.84
2023-01-19T22:21:13.390Z,99791.63
2023-01-19T22:23:15.954Z,99789.81
2023-01-19T22:25:18.199Z,99795.59
2023-01-19T22:27:20.303Z,99804.75
2023-01-19T22:29:23.176Z,99792.81
2023-01-19T22:31:29.460Z,99786.81
2023-01-19T22:33:32.893Z,99791.25
2023-01-19T22:35:39.748Z,99790.25
2023-01-19T22:37:41.778Z,99788.56
2023-01-19T22:39:44.819Z,99799.31
2023-01-19T22:41:52.958Z,99805.91
2023-01-19T22:43:57.205Z,99805.00
2023-01-19T22:45:59.303Z,99803.44
2023-01-19T22:48:01.385Z,99794.88
2023-01-19T22:50:03.578Z,99797.41
2023-01-19T22:52:05.696Z,99801.56
2023-01-19T22:54:08.711Z,99806.53
2023-01-19T22:56:17.133Z,99807.28
2023-01-19T22:58:20.315Z,99815.84
2023-01-19T23:00:22.553Z,99811.50
2023-01-19T23:02:24.992Z,99814.97
2023-01-19T23:04:30.021Z,99813.25
2023-01-19T23:06:35.020Z,99819.94
2023-01-19T23:08:38.762Z,99831.56
2023-01-19T23:10:40.868Z,99829.75
2023-01-19T23:12:49.007Z,99834.72
2023-01-19T23:14:51.055Z,99832.19
2023-01-19T23:16:54.024Z,99828.00
2023-01-19T23:19:00.303Z,99841.53
2023-01-19T23:21:14.640Z,99838.06
2023-01-19T23:23:18.245Z,99836.38
2023-01-19T23:25:24.611Z,99832.09
2023-01-19T23:27:45.130Z,99846.25
2023-01-19T23:29:48.991Z,99842.00
2023-01-19T23:31:54.526Z,99852.88
2023-01-19T23:34:02.355Z,99852.72
2023-01-19T23:36:04.474Z,99856.03
2023-01-19T23:38:06.560Z,99855.78
2023-01-19T23:40:12.618Z,99857.59
2023-01-19T23:42:14.630Z,99861.66
2023-01-19T23:44:17.462Z,99865.66
2023-01-19T23:46:20.466Z,99864.72
2023-01-19T23:48:23.506Z,99871.59
2023-01-19T23:50:25.436Z,99883.09
2023-01-19T23:52:27.436Z,99877.97
2023-01-19T23:54:29.333Z,99887.47
2023-01-19T23:56:34.304Z,99884.84
2023-01-19T23:58:36.651Z,99893.31
